Saline, Michigan
Current Conditions -  °F | °C
As of 10:51 PM on Friday 24 Oct 2014 (Local Time) from KARB Reporting Station
Haze Haze  
Wind Chill: 41°   Ceiling: Unl
Heat Index: 41°   Visibility: 1.7mi
Dew Point: 39°   Wind: 0mph
Humidity: 93%   Direction: NA
Pressure: 29.97"   Gusts: NA
Location:  42.17°N, 83.78°W
Report Text: KARB 250251Z AUTO 00000KT 1 3/4SM BR CLR 05/04 A2997 RMK AO2 SLP152 T00500039 56007
Loading
Personal Weather Stations






























Interactive Weather Map
Tropical Storm Tracking
New forecast layout! Learn more

10-Day Weather Forecast

Advertisements
Track Severe Weather on mobile